Time;durP1;ratioP1;P1;durP2;ratioP2;P2;SDS_P1;SDS_P2;PMS_P1;PMS_P2;Temp;Humidity;BMP_temperature;BMP_pressure;BME280_temperature;BME280_humidity;BME280_pressure;Samples;Min_cycle;Max_cycle;Signal;HPM_P1;HPM_P2
2022/10/27 00:01:20;;;;;;;0.35;0.35;;;;;;;;;;1879042;75;26287;-48
2022/10/27 00:03:48;;;;;;;0.45;0.45;;;;;;;;;;1828946;76;26263;-48
2022/10/27 00:06:16;;;;;;;1.40;0.40;;;;;;;;;;1782367;78;26271;-47
2022/10/27 00:08:43;;;;;;;0.30;0.30;;;;;;;;;;1878870;75;26244;-47
2022/10/27 00:11:10;;;;;;;0.28;0.28;;;;;;;;;;1878895;75;26292;-50
2022/10/27 00:13:38;;;;;;;0.40;0.40;;;;;;;;;;1878771;74;26313;-51
2022/10/27 00:16:07;;;;;;;0.23;0.23;;;;;;;;;;1877402;75;26280;-49
2022/10/27 00:18:34;;;;;;;0.30;0.30;;;;;;;;;;1878719;75;26241;-48
2022/10/27 00:21:07;;;;;;;0.30;0.30;;;;;;;;;;1879288;75;26191;-52
2022/10/27 00:23:34;;;;;;;0.33;0.33;;;;;;;;;;1881258;75;26286;-49
2022/10/27 00:26:02;;;;;;;0.30;0.30;;;;;;;;;;1880177;75;26193;-54
2022/10/27 00:28:29;;;;;;;0.40;0.40;;;;;;;;;;1879105;75;26513;-50
2022/10/27 00:30:57;;;;;;;0.40;0.40;;;;;;;;;;1861524;74;26170;-49
2022/10/27 00:33:24;;;;;;;0.20;0.20;;;;;;;;;;1878932;75;26269;-50
2022/10/27 00:35:52;;;;;;;0.30;0.30;;;;;;;;;;1878651;75;26299;-50
2022/10/27 00:38:20;;;;;;;0.30;0.30;;;;;;;;;;1880580;75;26675;-49
2022/10/27 00:40:48;;;;;;;1.22;0.30;;;;;;;;;;1858399;74;26301;-49
2022/10/27 00:43:25;;;;;;;0.20;0.20;;;;;;;;;;1882885;75;26757;-51
2022/10/27 00:45:53;;;;;;;0.20;0.20;;;;;;;;;;1894659;74;26268;-53
2022/10/27 00:48:21;;;;;;;0.35;0.35;;;;;;;;;;1912269;74;26764;-50
2022/10/27 00:50:48;;;;;;;0.28;0.28;;;;;;;;;;1895271;74;26398;-51
2022/10/27 00:53:16;;;;;;;0.30;0.30;;;;;;;;;;1894494;74;26258;-52
2022/10/27 00:55:43;;;;;;;0.20;0.20;;;;;;;;;;1893966;74;26694;-50
2022/10/27 00:58:12;;;;;;;0.23;0.23;;;;;;;;;;1894657;74;26284;-48
2022/10/27 01:00:40;;;;;;;0.30;0.30;;;;;;;;;;1893894;74;26236;-50
2022/10/27 01:03:09;;;;;;;0.30;0.30;;;;;;;;;;1894156;74;26240;-51
2022/10/27 01:05:37;;;;;;;1.75;0.30;;;;;;;;;;1899449;74;26714;-53
2022/10/27 01:08:05;;;;;;;0.20;0.20;;;;;;;;;;1915433;74;26244;-49
2022/10/27 01:10:32;;;;;;;0.30;0.30;;;;;;;;;;1894509;74;26256;-50
2022/10/27 01:13:00;;;;;;;1.27;0.20;;;;;;;;;;1894335;74;26236;-48
2022/10/27 01:15:41;;;;;;;0.42;0.42;;;;;;;;;;1894640;74;26688;-50
2022/10/27 01:18:13;;;;;;;0.30;0.30;;;;;;;;;;1872390;74;26728;-50
2022/10/27 01:20:41;;;;;;;0.28;0.28;;;;;;;;;;1893193;74;26272;-54
2022/10/27 01:23:27;;;;;;;0.28;0.28;;;;;;;;;;1901070;74;26241;-54
2022/10/27 01:26:02;;;;;;;0.20;0.20;;;;;;;;;;1894469;74;26710;-59
2022/10/27 01:28:36;;;;;;;0.30;0.30;;;;;;;;;;1872181;74;26276;-52
2022/10/27 01:31:05;;;;;;;0.20;0.20;;;;;;;;;;1883731;74;26302;-53
2022/10/27 01:33:34;;;;;;;0.20;0.20;;;;;;;;;;1893993;74;26245;-54
2022/10/27 01:36:02;;;;;;;0.23;0.23;;;;;;;;;;1893709;74;26268;-50
2022/10/27 01:38:31;;;;;;;0.30;0.30;;;;;;;;;;1871988;74;26244;-52
2022/10/27 01:41:03;;;;;;;0.20;0.20;;;;;;;;;;1890220;74;26237;-51
2022/10/27 01:43:31;;;;;;;0.28;0.28;;;;;;;;;;1892176;74;26289;-49
2022/10/27 01:45:58;;;;;;;0.20;0.20;;;;;;;;;;1878954;75;26261;-51
2022/10/27 01:48:26;;;;;;;0.37;0.30;;;;;;;;;;1880374;75;26472;-52
2022/10/27 01:50:53;;;;;;;0.30;0.30;;;;;;;;;;1878969;74;26261;-51
2022/10/27 01:53:20;;;;;;;0.30;0.30;;;;;;;;;;1869897;75;26241;-52
2022/10/27 01:55:49;;;;;;;0.20;0.20;;;;;;;;;;1876567;74;26256;-50
2022/10/27 01:58:27;;;;;;;0.30;0.30;;;;;;;;;;1880472;75;26326;-51
2022/10/27 02:00:59;;;;;;;0.20;0.20;;;;;;;;;;1878914;75;26285;-49
2022/10/27 02:03:43;;;;;;;0.30;0.30;;;;;;;;;;1878987;75;26757;-51
2022/10/27 02:06:12;;;;;;;0.23;0.23;;;;;;;;;;1877617;74;26379;-49
2022/10/27 02:08:57;;;;;;;0.35;0.35;;;;;;;;;;1878378;75;26272;-51
2022/10/27 02:11:26;;;;;;;0.28;0.28;;;;;;;;;;1878939;75;26309;-49
2022/10/27 02:13:57;;;;;;;0.20;0.20;;;;;;;;;;1878736;74;26241;-51
2022/10/27 02:16:25;;;;;;;0.30;0.30;;;;;;;;;;1878981;75;26261;-52
2022/10/27 02:18:54;;;;;;;0.28;0.28;;;;;;;;;;1878882;75;26362;-48
2022/10/27 02:21:23;;;;;;;0.30;0.30;;;;;;;;;;1878624;75;26320;-52
2022/10/27 02:23:50;;;;;;;0.20;0.20;;;;;;;;;;1880294;75;26733;-52
2022/10/27 02:26:22;;;;;;;0.20;0.20;;;;;;;;;;1868292;75;26297;-51
2022/10/27 02:28:50;;;;;;;0.33;0.33;;;;;;;;;;1861118;76;26302;-48
2022/10/27 02:31:19;;;;;;;0.30;0.30;;;;;;;;;;1841808;75;26311;-51
2022/10/27 02:33:47;;;;;;;0.30;0.30;;;;;;;;;;1879655;75;26271;-52
2022/10/27 02:36:14;;;;;;;0.40;0.40;;;;;;;;;;1878722;75;26213;-54
2022/10/27 02:38:42;;;;;;;0.20;0.20;;;;;;;;;;1857702;75;26355;-51
2022/10/27 02:41:09;;;;;;;0.20;0.20;;;;;;;;;;1879303;75;26238;-49
2022/10/27 02:43:36;;;;;;;0.30;0.30;;;;;;;;;;1878594;75;26636;-50
2022/10/27 02:46:03;;;;;;;0.30;0.30;;;;;;;;;;1878684;75;26789;-52
2022/10/27 02:48:31;;;;;;;0.40;0.40;;;;;;;;;;1878709;75;26760;-49
2022/10/27 02:50:58;;;;;;;0.30;0.30;;;;;;;;;;1878793;75;26794;-49
2022/10/27 02:53:26;;;;;;;0.35;0.35;;;;;;;;;;1878862;75;26719;-53
2022/10/27 02:55:53;;;;;;;0.33;0.30;;;;;;;;;;1878925;75;26864;-51
2022/10/27 02:58:20;;;;;;;0.20;0.20;;;;;;;;;;1878865;75;27161;-51
2022/10/27 03:00:47;;;;;;;0.30;0.30;;;;;;;;;;1878856;75;26386;-52
2022/10/27 03:03:15;;;;;;;0.30;0.30;;;;;;;;;;1879051;75;26316;-52
2022/10/27 03:05:42;;;;;;;0.30;0.30;;;;;;;;;;1880640;75;26316;-53
2022/10/27 03:08:09;;;;;;;0.28;0.28;;;;;;;;;;1881666;75;26212;-49
2022/10/27 03:10:36;;;;;;;0.20;0.20;;;;;;;;;;1878508;75;26281;-49
2022/10/27 03:13:04;;;;;;;0.40;0.40;;;;;;;;;;1878769;75;26242;-51
2022/10/27 03:15:31;;;;;;;0.28;0.28;;;;;;;;;;1878740;75;26334;-53
2022/10/27 03:17:58;;;;;;;0.30;0.30;;;;;;;;;;1878796;75;26194;-52
2022/10/27 03:20:25;;;;;;;0.30;0.30;;;;;;;;;;1878795;75;26295;-51
2022/10/27 03:22:53;;;;;;;0.30;0.30;;;;;;;;;;1885358;75;26866;-50
2022/10/27 03:25:20;;;;;;;0.30;0.30;;;;;;;;;;1878835;75;26269;-50
2022/10/27 03:27:47;;;;;;;0.20;0.20;;;;;;;;;;1878746;75;26237;-50
2022/10/27 03:30:15;;;;;;;0.28;0.28;;;;;;;;;;1876540;75;26327;-49
2022/10/27 03:32:47;;;;;;;0.30;0.30;;;;;;;;;;1878584;75;26197;-52
2022/10/27 03:35:14;;;;;;;0.30;0.30;;;;;;;;;;1878746;75;26263;-51
2022/10/27 03:37:42;;;;;;;0.28;0.28;;;;;;;;;;1878583;74;26299;-52
2022/10/27 03:40:09;;;;;;;0.30;0.30;;;;;;;;;;1878561;75;26256;-52
2022/10/27 03:42:38;;;;;;;0.30;0.30;;;;;;;;;;1878809;75;26698;-52
2022/10/27 03:45:06;;;;;;;0.30;0.30;;;;;;;;;;1878570;75;26729;-51
2022/10/27 03:47:33;;;;;;;0.42;0.40;;;;;;;;;;1879787;75;26342;-52
2022/10/27 03:50:00;;;;;;;0.30;0.30;;;;;;;;;;1880050;76;26794;-49
2022/10/27 03:52:28;;;;;;;0.40;0.40;;;;;;;;;;1879878;75;26809;-48
2022/10/27 03:54:55;;;;;;;0.30;0.30;;;;;;;;;;1879294;76;27474;-50
2022/10/27 03:57:22;;;;;;;0.30;0.30;;;;;;;;;;1880451;75;26264;-49
2022/10/27 03:59:50;;;;;;;0.30;0.30;;;;;;;;;;1879964;76;26327;-51
2022/10/27 04:02:17;;;;;;;0.20;0.20;;;;;;;;;;1879838;75;26198;-50
2022/10/27 04:04:44;;;;;;;0.30;0.30;;;;;;;;;;1879933;76;26281;-53
2022/10/27 04:07:11;;;;;;;0.30;0.30;;;;;;;;;;1880230;75;26249;-54
2022/10/27 04:09:39;;;;;;;0.40;0.40;;;;;;;;;;1880143;75;26287;-51
2022/10/27 04:12:06;;;;;;;0.30;0.30;;;;;;;;;;1880193;75;26166;-54
2022/10/27 04:14:33;;;;;;;0.30;0.30;;;;;;;;;;1879862;76;26295;-50
2022/10/27 04:17:01;;;;;;;0.30;0.30;;;;;;;;;;1880015;75;26245;-48
2022/10/27 04:19:28;;;;;;;0.30;0.30;;;;;;;;;;1880030;75;26193;-51
2022/10/27 04:21:55;;;;;;;0.30;0.30;;;;;;;;;;1880112;75;26252;-47
2022/10/27 04:24:23;;;;;;;0.25;0.25;;;;;;;;;;1880074;75;26257;-56
2022/10/27 04:26:50;;;;;;;0.30;0.30;;;;;;;;;;1879766;75;26674;-51
2022/10/27 04:29:17;;;;;;;0.30;0.30;;;;;;;;;;1877564;75;26254;-48
2022/10/27 04:31:45;;;;;;;0.40;0.40;;;;;;;;;;1877186;75;26238;-47
2022/10/27 04:34:12;;;;;;;0.37;0.37;;;;;;;;;;1875298;76;26264;-48
2022/10/27 04:36:39;;;;;;;0.20;0.20;;;;;;;;;;1875142;75;26201;-47
2022/10/27 04:39:06;;;;;;;0.30;0.30;;;;;;;;;;1875346;76;26241;-51
2022/10/27 04:41:34;;;;;;;0.40;0.40;;;;;;;;;;1878048;76;26705;-50
2022/10/27 04:44:01;;;;;;;0.30;0.30;;;;;;;;;;1880221;76;26686;-49
2022/10/27 04:46:28;;;;;;;0.30;0.30;;;;;;;;;;1878865;75;26338;-48
2022/10/27 04:48:56;;;;;;;0.30;0.30;;;;;;;;;;1874498;75;26245;-50
2022/10/27 04:51:23;;;;;;;0.75;0.47;;;;;;;;;;1874699;74;26237;-53
2022/10/27 04:53:50;;;;;;;0.55;0.55;;;;;;;;;;1877482;76;26311;-49
2022/10/27 04:56:18;;;;;;;0.50;0.50;;;;;;;;;;1876915;75;26303;-48
2022/10/27 04:58:45;;;;;;;0.50;0.50;;;;;;;;;;1869616;75;26725;-48
2022/10/27 05:01:13;;;;;;;0.62;0.50;;;;;;;;;;1882286;75;26828;-49
2022/10/27 05:03:41;;;;;;;1.85;0.45;;;;;;;;;;1881189;75;26346;-51
2022/10/27 05:06:08;;;;;;;1.02;0.40;;;;;;;;;;1875319;74;26700;-51
2022/10/27 05:08:35;;;;;;;0.95;0.45;;;;;;;;;;1882672;75;26236;-51
2022/10/27 05:11:03;;;;;;;0.62;0.60;;;;;;;;;;1875887;76;26245;-50
2022/10/27 05:13:30;;;;;;;4.03;0.90;;;;;;;;;;1876705;75;26371;-51
2022/10/27 05:16:00;;;;;;;0.70;0.40;;;;;;;;;;1879071;75;26280;-51
2022/10/27 05:18:28;;;;;;;0.40;0.40;;;;;;;;;;1884367;75;26273;-49
2022/10/27 05:20:55;;;;;;;1.20;0.60;;;;;;;;;;1876602;76;26326;-48
2022/10/27 05:23:22;;;;;;;1.95;0.80;;;;;;;;;;1880364;75;26305;-49
2022/10/27 05:25:51;;;;;;;3.80;0.60;;;;;;;;;;1876665;75;26922;-52
2022/10/27 05:28:18;;;;;;;1.20;0.40;;;;;;;;;;1877984;76;26283;-50
2022/10/27 05:30:45;;;;;;;2.70;0.50;;;;;;;;;;1876314;76;26236;-50
2022/10/27 05:33:13;;;;;;;1.62;0.72;;;;;;;;;;1876036;76;26233;-47
2022/10/27 05:35:40;;;;;;;1.00;0.40;;;;;;;;;;1874849;76;26256;-49
2022/10/27 05:38:07;;;;;;;5.65;0.60;;;;;;;;;;1877534;76;26187;-48
2022/10/27 05:40:35;;;;;;;3.65;0.53;;;;;;;;;;1877767;75;26307;-48
2022/10/27 05:43:03;;;;;;;0.75;0.62;;;;;;;;;;1877494;75;26240;-49
2022/10/27 05:45:30;;;;;;;1.80;0.50;;;;;;;;;;1876245;74;26351;-49
2022/10/27 05:48:01;;;;;;;1.00;0.53;;;;;;;;;;1871884;76;26248;-50
2022/10/27 05:50:29;;;;;;;1.25;0.50;;;;;;;;;;1873015;75;26276;-51
2022/10/27 05:52:56;;;;;;;0.95;0.40;;;;;;;;;;1871167;75;26239;-47
2022/10/27 05:55:24;;;;;;;0.45;0.40;;;;;;;;;;1872538;75;26267;-49
2022/10/27 05:57:53;;;;;;;1.65;0.57;;;;;;;;;;1872405;75;26300;-50
2022/10/27 06:00:21;;;;;;;2.92;1.17;;;;;;;;;;1872399;75;26249;-49
2022/10/27 06:02:49;;;;;;;0.50;0.50;;;;;;;;;;1874359;75;26327;-46
2022/10/27 06:05:16;;;;;;;0.88;0.50;;;;;;;;;;1874748;75;26315;-47
2022/10/27 06:07:44;;;;;;;0.50;0.50;;;;;;;;;;1875263;75;26640;-47
2022/10/27 06:10:11;;;;;;;2.02;0.70;;;;;;;;;;1875183;75;26241;-47
2022/10/27 06:12:38;;;;;;;2.87;0.65;;;;;;;;;;1875182;75;26398;-53
2022/10/27 06:15:06;;;;;;;0.53;0.53;;;;;;;;;;1842581;76;26276;-51
2022/10/27 06:17:34;;;;;;;0.45;0.45;;;;;;;;;;1811130;77;26233;-51
2022/10/27 06:20:01;;;;;;;2.60;0.60;;;;;;;;;;1842578;76;26232;-48
2022/10/27 06:22:28;;;;;;;0.53;0.53;;;;;;;;;;1849892;76;26792;-50
2022/10/27 06:24:55;;;;;;;0.60;0.60;;;;;;;;;;1840473;76;26712;-50
2022/10/27 06:27:23;;;;;;;1.60;0.68;;;;;;;;;;1832657;76;26255;-49
2022/10/27 06:29:50;;;;;;;0.72;0.70;;;;;;;;;;1838463;76;26255;-48
2022/10/27 06:32:17;;;;;;;0.82;0.60;;;;;;;;;;1839925;78;26272;-51
2022/10/27 06:34:45;;;;;;;1.27;0.70;;;;;;;;;;1840409;76;26740;-49
2022/10/27 06:37:12;;;;;;;0.60;0.60;;;;;;;;;;1843605;76;26568;-51
2022/10/27 06:39:40;;;;;;;0.50;0.50;;;;;;;;;;1807221;77;26373;-50
2022/10/27 06:42:07;;;;;;;0.57;0.57;;;;;;;;;;1791178;80;26304;-51
2022/10/27 06:44:35;;;;;;;0.78;0.75;;;;;;;;;;1817646;77;26242;-50
2022/10/27 06:47:02;;;;;;;0.60;0.60;;;;;;;;;;1823685;78;26305;-52
2022/10/27 06:49:29;;;;;;;0.70;0.40;;;;;;;;;;1825128;78;26267;-52
2022/10/27 06:51:58;;;;;;;1.17;0.60;;;;;;;;;;1834398;76;26282;-51
2022/10/27 06:54:25;;;;;;;0.57;0.50;;;;;;;;;;1794758;77;26327;-53
2022/10/27 06:56:53;;;;;;;0.90;0.78;;;;;;;;;;1825544;77;26758;-55
2022/10/27 06:59:20;;;;;;;0.50;0.50;;;;;;;;;;1829482;77;26652;-52
2022/10/27 07:01:47;;;;;;;0.42;0.42;;;;;;;;;;1823694;77;26259;-51
2022/10/27 07:04:14;;;;;;;0.50;0.50;;;;;;;;;;1841453;76;26248;-49
2022/10/27 07:06:42;;;;;;;0.60;0.60;;;;;;;;;;1792209;78;26274;-50
2022/10/27 07:09:10;;;;;;;0.50;0.50;;;;;;;;;;1824295;77;26246;-48
2022/10/27 07:11:37;;;;;;;0.45;0.45;;;;;;;;;;1825091;77;26222;-51
2022/10/27 07:14:04;;;;;;;0.50;0.50;;;;;;;;;;1842705;76;26209;-51
2022/10/27 07:16:32;;;;;;;0.60;0.60;;;;;;;;;;1830946;77;26347;-50
2022/10/27 07:18:59;;;;;;;0.60;0.60;;;;;;;;;;1804042;78;26360;-51
2022/10/27 07:21:27;;;;;;;0.60;0.60;;;;;;;;;;1801758;78;26339;-53
2022/10/27 07:23:54;;;;;;;0.60;0.60;;;;;;;;;;1845885;76;26270;-50
2022/10/27 07:26:22;;;;;;;0.42;0.42;;;;;;;;;;1801657;78;25393;-47
2022/10/27 07:28:49;;;;;;;0.50;0.50;;;;;;;;;;1804231;78;26318;-49
2022/10/27 07:31:16;;;;;;;0.62;0.62;;;;;;;;;;1815265;77;26323;-53
2022/10/27 07:33:43;;;;;;;0.60;0.60;;;;;;;;;;1815256;77;26216;-47
2022/10/27 07:36:11;;;;;;;0.60;0.55;;;;;;;;;;1814926;79;26719;-49
2022/10/27 07:38:38;;;;;;;0.85;0.55;;;;;;;;;;1808839;79;26691;-50
2022/10/27 07:41:05;;;;;;;0.65;0.62;;;;;;;;;;1814705;77;26216;-50
2022/10/27 07:43:34;;;;;;;1.85;0.50;;;;;;;;;;1816891;77;26795;-51
2022/10/27 07:46:01;;;;;;;0.40;0.40;;;;;;;;;;1814992;79;26242;-50
2022/10/27 07:48:28;;;;;;;0.60;0.60;;;;;;;;;;1813694;77;26271;-51
2022/10/27 07:50:55;;;;;;;0.60;0.60;;;;;;;;;;1876534;75;26405;-49
2022/10/27 07:53:23;;;;;;;0.53;0.53;;;;;;;;;;1877964;75;26721;-51
2022/10/27 07:55:51;;;;;;;0.53;0.53;;;;;;;;;;1873057;75;26718;-49
2022/10/27 07:58:18;;;;;;;0.62;0.60;;;;;;;;;;1876435;75;26276;-51
2022/10/27 08:00:47;;;;;;;0.62;0.60;;;;;;;;;;1877153;75;26311;-48
2022/10/27 08:03:21;;;;;;;0.65;0.65;;;;;;;;;;1874266;75;26221;-51
2022/10/27 08:05:49;;;;;;;0.37;0.37;;;;;;;;;;1877681;75;26318;-48
2022/10/27 08:08:16;;;;;;;0.30;0.30;;;;;;;;;;1877181;75;26262;-51
2022/10/27 08:10:44;;;;;;;0.47;0.47;;;;;;;;;;1870071;75;26190;-49
2022/10/27 08:13:12;;;;;;;0.53;0.53;;;;;;;;;;1877368;75;26260;-48
2022/10/27 08:15:40;;;;;;;0.40;0.40;;;;;;;;;;1869937;75;26631;-50
2022/10/27 08:18:08;;;;;;;0.60;0.50;;;;;;;;;;1876620;74;26241;-48
2022/10/27 08:20:40;;;;;;;0.50;0.50;;;;;;;;;;1881276;74;26303;-51
2022/10/27 08:23:09;;;;;;;0.50;0.50;;;;;;;;;;1880061;74;26710;-52
2022/10/27 08:25:36;;;;;;;0.60;0.60;;;;;;;;;;1877905;75;26298;-50
2022/10/27 08:28:04;;;;;;;0.40;0.40;;;;;;;;;;1877285;75;26321;-49
2022/10/27 08:30:32;;;;;;;0.50;0.50;;;;;;;;;;1876514;75;26333;-49
2022/10/27 08:33:00;;;;;;;0.30;0.30;;;;;;;;;;1871646;75;26186;-48
2022/10/27 08:35:30;;;;;;;0.40;0.40;;;;;;;;;;1875350;75;27490;-51
2022/10/27 08:38:02;;;;;;;0.50;0.50;;;;;;;;;;1878716;75;26395;-52
2022/10/27 08:40:30;;;;;;;0.45;0.45;;;;;;;;;;1875161;75;26483;-54
2022/10/27 08:42:59;;;;;;;0.47;0.47;;;;;;;;;;1872404;75;26351;-50
2022/10/27 08:45:30;;;;;;;0.42;0.42;;;;;;;;;;1852821;75;26213;-49
2022/10/27 08:48:01;;;;;;;0.50;0.50;;;;;;;;;;1867584;75;26370;-50
2022/10/27 08:50:30;;;;;;;0.50;0.50;;;;;;;;;;1872505;75;26875;-52
2022/10/27 08:53:05;;;;;;;0.50;0.50;;;;;;;;;;1872307;75;26273;-52
2022/10/27 08:55:34;;;;;;;0.53;0.53;;;;;;;;;;1875428;75;26337;-50
2022/10/27 08:58:02;;;;;;;0.50;0.50;;;;;;;;;;1876120;75;26250;-51
2022/10/27 09:00:31;;;;;;;0.50;0.50;;;;;;;;;;1884878;75;26360;-51
2022/10/27 09:03:06;;;;;;;0.50;0.50;;;;;;;;;;1882087;75;26251;-49
2022/10/27 09:05:38;;;;;;;0.60;0.60;;;;;;;;;;1875301;75;26265;-51
2022/10/27 09:08:06;;;;;;;0.90;0.50;;;;;;;;;;1875199;75;26186;-51
2022/10/27 09:10:38;;;;;;;0.60;0.60;;;;;;;;;;1890437;75;26248;-50
2022/10/27 09:13:13;;;;;;;0.60;0.60;;;;;;;;;;1894842;75;26272;-47
2022/10/27 09:15:42;;;;;;;0.47;0.47;;;;;;;;;;1873189;75;26317;-46
2022/10/27 09:18:11;;;;;;;0.60;0.60;;;;;;;;;;1875926;75;26753;-47
2022/10/27 09:20:40;;;;;;;0.70;0.70;;;;;;;;;;1874452;75;26782;-51
2022/10/27 09:23:08;;;;;;;0.60;0.60;;;;;;;;;;1873951;75;26654;-47
2022/10/27 09:25:36;;;;;;;0.60;0.60;;;;;;;;;;1873983;75;26702;-50
2022/10/27 09:28:05;;;;;;;0.65;0.60;;;;;;;;;;1871935;75;26307;-52
2022/10/27 09:30:33;;;;;;;0.60;0.60;;;;;;;;;;1875082;76;26281;-50
2022/10/27 09:33:01;;;;;;;0.60;0.60;;;;;;;;;;1874551;75;26277;-49
2022/10/27 09:35:28;;;;;;;0.60;0.60;;;;;;;;;;1875324;75;26320;-50
2022/10/27 09:37:57;;;;;;;0.60;0.60;;;;;;;;;;1875341;75;26365;-50
2022/10/27 09:40:25;;;;;;;0.60;0.60;;;;;;;;;;1874482;75;26358;-53
2022/10/27 09:42:54;;;;;;;0.40;0.40;;;;;;;;;;1874550;75;26249;-52
2022/10/27 09:45:22;;;;;;;0.60;0.60;;;;;;;;;;1876131;75;26293;-51
2022/10/27 09:48:06;;;;;;;0.57;0.57;;;;;;;;;;1876957;75;26314;-51
2022/10/27 09:50:35;;;;;;;0.60;0.60;;;;;;;;;;1876850;75;27553;-50
2022/10/27 09:53:03;;;;;;;0.50;0.50;;;;;;;;;;1879189;75;26233;-51
2022/10/27 09:55:38;;;;;;;0.55;0.55;;;;;;;;;;1878830;75;26606;-51
2022/10/27 09:58:05;;;;;;;0.60;0.60;;;;;;;;;;1862344;75;26230;-48
2022/10/27 10:00:32;;;;;;;0.60;0.60;;;;;;;;;;1874474;75;26976;-52
2022/10/27 10:03:04;;;;;;;0.62;0.62;;;;;;;;;;1822499;77;26306;-52
2022/10/27 10:05:32;;;;;;;0.60;0.60;;;;;;;;;;1823871;77;26321;-51
2022/10/27 10:08:13;;;;;;;0.60;0.60;;;;;;;;;;1807136;78;26341;-47
2022/10/27 10:10:42;;;;;;;0.60;0.60;;;;;;;;;;1807667;78;26208;-48
2022/10/27 10:13:13;;;;;;;0.60;0.60;;;;;;;;;;1785885;80;26305;-49
2022/10/27 10:15:42;;;;;;;0.50;0.50;;;;;;;;;;1827826;77;27310;-49
2022/10/27 10:18:14;;;;;;;0.60;0.60;;;;;;;;;;1825727;78;26306;-51
2022/10/27 10:20:42;;;;;;;0.60;0.60;;;;;;;;;;1822225;78;26365;-52
2022/10/27 10:23:11;;;;;;;0.62;0.62;;;;;;;;;;1824860;78;26800;-52
2022/10/27 10:25:46;;;;;;;0.68;0.68;;;;;;;;;;1825220;77;26226;-48
2022/10/27 10:28:10;;;;;;;0.60;0.60;;;;;;;;;;1824883;78;26359;-48
2022/10/27 10:30:39;;;;;;;1.40;0.80;;;;;;;;;;1824396;78;26222;-47
2022/10/27 10:33:07;;;;;;;0.68;0.60;;;;;;;;;;1824176;78;26210;-47
2022/10/27 10:35:47;;;;;;;0.65;0.65;;;;;;;;;;1812575;78;26268;-48
2022/10/27 10:38:25;;;;;;;0.60;0.60;;;;;;;;;;1827592;78;26309;-50
2022/10/27 10:40:57;;;;;;;0.70;0.70;;;;;;;;;;1823281;78;26386;-49
2022/10/27 10:43:24;;;;;;;0.70;0.70;;;;;;;;;;1830571;77;26726;-47
2022/10/27 10:45:52;;;;;;;0.70;0.70;;;;;;;;;;1825703;78;26270;-47
2022/10/27 10:48:30;;;;;;;0.68;0.68;;;;;;;;;;1822071;77;26757;-50
2022/10/27 10:50:58;;;;;;;0.78;0.78;;;;;;;;;;1816010;77;26382;-52
2022/10/27 10:53:30;;;;;;;0.70;0.70;;;;;;;;;;1818240;77;26695;-50
2022/10/27 10:56:00;;;;;;;0.60;0.60;;;;;;;;;;1815837;78;26213;-47
2022/10/27 10:58:29;;;;;;;0.70;0.70;;;;;;;;;;1816139;77;26754;-49
2022/10/27 11:00:58;;;;;;;0.80;0.80;;;;;;;;;;1820194;77;26363;-51
2022/10/27 11:03:27;;;;;;;0.60;0.60;;;;;;;;;;1817853;79;26206;-52
2022/10/27 11:05:56;;;;;;;0.60;0.60;;;;;;;;;;1817690;79;26336;-48
2022/10/27 11:08:24;;;;;;;0.60;0.60;;;;;;;;;;1828744;77;26746;-51
2022/10/27 11:10:52;;;;;;;0.70;0.70;;;;;;;;;;1820149;77;26529;-52
2022/10/27 11:13:21;;;;;;;0.70;0.70;;;;;;;;;;1819451;77;26232;-50
2022/10/27 11:15:50;;;;;;;0.57;0.57;;;;;;;;;;1819763;77;26306;-50
2022/10/27 11:18:28;;;;;;;0.60;0.60;;;;;;;;;;1818421;78;26291;-48
2022/10/27 11:21:03;;;;;;;0.62;0.62;;;;;;;;;;1818451;79;26746;-49
2022/10/27 11:23:31;;;;;;;0.70;0.70;;;;;;;;;;1819537;79;26258;-50
2022/10/27 11:26:00;;;;;;;0.70;0.70;;;;;;;;;;1826175;77;26315;-52
2022/10/27 11:28:41;;;;;;;0.80;0.80;;;;;;;;;;1821135;78;26322;-52
2022/10/27 11:31:16;;;;;;;0.80;0.80;;;;;;;;;;1816868;79;26309;-52
2022/10/27 11:33:43;;;;;;;0.68;0.68;;;;;;;;;;1820827;77;26310;-53
2022/10/27 11:36:27;;;;;;;0.60;0.60;;;;;;;;;;1819990;77;26657;-49
2022/10/27 11:38:59;;;;;;;0.70;0.70;;;;;;;;;;1817461;79;26707;-49
2022/10/27 11:41:44;;;;;;;0.80;0.80;;;;;;;;;;1820358;77;26251;-51
2022/10/27 11:44:19;;;;;;;0.70;0.70;;;;;;;;;;1821019;79;26271;-48
2022/10/27 11:46:51;;;;;;;0.60;0.60;;;;;;;;;;1820752;77;26794;-53
2022/10/27 11:49:25;;;;;;;0.50;0.50;;;;;;;;;;1826635;77;26317;-52
2022/10/27 11:51:54;;;;;;;0.80;0.80;;;;;;;;;;1831627;77;26989;-54
2022/10/27 11:54:21;;;;;;;0.68;0.68;;;;;;;;;;1832716;77;26494;-51
2022/10/27 11:56:50;;;;;;;0.65;0.65;;;;;;;;;;1831903;77;26241;-51
2022/10/27 11:59:19;;;;;;;0.85;0.80;;;;;;;;;;1830905;77;26700;-52
2022/10/27 12:01:51;;;;;;;0.60;0.60;;;;;;;;;;1832254;77;26311;-49
2022/10/27 12:04:32;;;;;;;0.70;0.70;;;;;;;;;;1829112;78;26324;-54
2022/10/27 12:07:19;;;;;;;1.37;0.60;;;;;;;;;;1827181;78;26269;-53
2022/10/27 12:09:50;;;;;;;0.70;0.70;;;;;;;;;;1829190;77;26271;-53
2022/10/27 12:12:22;;;;;;;0.70;0.70;;;;;;;;;;1824399;78;26720;-54
2022/10/27 12:15:00;;;;;;;0.60;0.60;;;;;;;;;;1832180;78;26324;-50
2022/10/27 12:17:32;;;;;;;0.60;0.60;;;;;;;;;;1832632;77;26336;-56
2022/10/27 12:20:00;;;;;;;0.68;0.68;;;;;;;;;;1833072;78;26250;-50
2022/10/27 12:22:29;;;;;;;0.60;0.60;;;;;;;;;;1832756;78;26774;-51
2022/10/27 12:25:13;;;;;;;0.82;0.82;;;;;;;;;;1832173;77;26366;-50
2022/10/27 12:27:43;;;;;;;0.60;0.60;;;;;;;;;;1830505;77;26376;-53
2022/10/27 12:30:12;;;;;;;0.60;0.60;;;;;;;;;;1831756;77;26277;-52
2022/10/27 12:32:41;;;;;;;0.80;0.80;;;;;;;;;;1832371;77;26417;-51
2022/10/27 12:35:09;;;;;;;0.70;0.70;;;;;;;;;;1832940;78;26331;-53
2022/10/27 12:37:38;;;;;;;0.60;0.60;;;;;;;;;;1832640;77;26403;-49
2022/10/27 12:40:07;;;;;;;0.62;0.62;;;;;;;;;;1832885;78;26320;-49
2022/10/27 12:42:45;;;;;;;0.70;0.70;;;;;;;;;;1832631;78;26259;-52
2022/10/27 12:45:23;;;;;;;0.70;0.70;;;;;;;;;;1831224;78;26269;-50
2022/10/27 12:47:55;;;;;;;0.70;0.70;;;;;;;;;;1831263;78;27040;-48
2022/10/27 12:50:24;;;;;;;0.70;0.70;;;;;;;;;;1826383;77;26282;-49
2022/10/27 12:53:09;;;;;;;0.70;0.70;;;;;;;;;;1787923;77;26285;-50
2022/10/27 12:55:56;;;;;;;0.65;0.55;;;;;;;;;;1824010;77;26770;-48
2022/10/27 12:58:43;;;;;;;0.90;0.90;;;;;;;;;;1823026;77;26764;-48
2022/10/27 13:01:29;;;;;;;0.62;0.62;;;;;;;;;;1810461;77;26763;-51
2022/10/27 13:03:57;;;;;;;0.70;0.70;;;;;;;;;;1824706;77;26267;-48
2022/10/27 13:06:29;;;;;;;0.60;0.60;;;;;;;;;;1826620;77;26253;-54
2022/10/27 13:08:59;;;;;;;0.70;0.70;;;;;;;;;;1820859;78;26391;-51
2022/10/27 13:11:31;;;;;;;0.70;0.70;;;;;;;;;;1811736;77;26272;-52
2022/10/27 13:14:08;;;;;;;0.78;0.78;;;;;;;;;;1810399;77;27483;-54
2022/10/27 13:16:40;;;;;;;1.15;0.60;;;;;;;;;;1823164;77;26302;-57
2022/10/27 13:19:11;;;;;;;0.70;0.70;;;;;;;;;;1824171;77;26321;-53
2022/10/27 13:21:46;;;;;;;0.60;0.60;;;;;;;;;;1824403;77;26302;-55
2022/10/27 13:24:20;;;;;;;0.80;0.80;;;;;;;;;;1823907;77;26239;-51
2022/10/27 13:26:59;;;;;;;0.60;0.60;;;;;;;;;;1822818;77;26269;-50
2022/10/27 13:29:46;;;;;;;0.68;0.68;;;;;;;;;;1761489;79;26371;-51
2022/10/27 13:32:17;;;;;;;0.80;0.80;;;;;;;;;;1823688;77;26299;-48
2022/10/27 13:34:49;;;;;;;0.70;0.70;;;;;;;;;;1827489;77;26647;-50
2022/10/27 13:37:35;;;;;;;0.98;0.70;;;;;;;;;;1800956;78;26282;-49
2022/10/27 13:40:02;;;;;;;0.65;0.65;;;;;;;;;;1804469;77;26250;-48
2022/10/27 13:42:29;;;;;;;0.80;0.80;;;;;;;;;;1824028;77;26312;-51
2022/10/27 13:44:56;;;;;;;0.70;0.70;;;;;;;;;;1802729;77;26270;-51
2022/10/27 13:47:24;;;;;;;0.80;0.80;;;;;;;;;;1821956;78;26267;-52
2022/10/27 13:49:52;;;;;;;0.80;0.80;;;;;;;;;;1817173;76;26846;-47
2022/10/27 13:52:23;;;;;;;0.70;0.70;;;;;;;;;;1820634;78;26284;-48
2022/10/27 13:55:07;;;;;;;0.70;0.70;;;;;;;;;;1802170;77;26915;-51
2022/10/27 13:57:36;;;;;;;0.68;0.68;;;;;;;;;;1822224;77;26271;-53
2022/10/27 14:00:11;;;;;;;0.60;0.60;;;;;;;;;;1812321;78;26282;-52
2022/10/27 14:02:57;;;;;;;0.62;0.62;;;;;;;;;;1794073;78;26396;-53
2022/10/27 14:05:34;;;;;;;0.60;0.60;;;;;;;;;;1789455;78;26271;-48
2022/10/27 14:08:02;;;;;;;0.60;0.60;;;;;;;;;;1811923;77;26663;-54
2022/10/27 14:10:29;;;;;;;0.80;0.80;;;;;;;;;;1817798;77;26246;-50
2022/10/27 14:12:57;;;;;;;0.70;0.70;;;;;;;;;;1810995;79;27356;-52
2022/10/27 14:15:26;;;;;;;0.62;0.62;;;;;;;;;;1812009;78;26308;-49
2022/10/27 14:17:54;;;;;;;0.70;0.70;;;;;;;;;;1813038;79;26591;-49
2022/10/27 14:20:26;;;;;;;0.70;0.70;;;;;;;;;;1813525;79;26278;-47
2022/10/27 14:22:55;;;;;;;0.70;0.70;;;;;;;;;;1813581;79;26293;-47
2022/10/27 14:25:24;;;;;;;0.80;0.80;;;;;;;;;;1812048;78;26292;-47
2022/10/27 14:27:53;;;;;;;0.70;0.70;;;;;;;;;;1803230;79;26279;-50
2022/10/27 14:30:22;;;;;;;0.80;0.80;;;;;;;;;;1808749;78;26365;-50
2022/10/27 14:32:49;;;;;;;0.60;0.60;;;;;;;;;;1812389;78;26380;-49
2022/10/27 14:35:18;;;;;;;0.60;0.60;;;;;;;;;;1810578;78;26270;-48
2022/10/27 14:37:45;;;;;;;0.78;0.78;;;;;;;;;;1810239;79;26749;-47
2022/10/27 14:40:17;;;;;;;0.60;0.60;;;;;;;;;;1806911;79;26292;-48
2022/10/27 14:42:45;;;;;;;0.60;0.60;;;;;;;;;;1805896;79;26327;-48
2022/10/27 14:45:16;;;;;;;0.70;0.70;;;;;;;;;;1810500;78;26296;-48
2022/10/27 14:47:45;;;;;;;0.70;0.70;;;;;;;;;;1807127;79;26267;-48
2022/10/27 14:50:14;;;;;;;0.70;0.70;;;;;;;;;;1807106;78;26648;-50
2022/10/27 14:52:45;;;;;;;0.80;0.80;;;;;;;;;;1802223;78;26357;-49
2022/10/27 14:55:14;;;;;;;0.80;0.80;;;;;;;;;;1807446;78;26910;-50
2022/10/27 14:57:41;;;;;;;0.70;0.70;;;;;;;;;;1806629;78;26285;-48